createdAt,value
2023-02-11T00:02:40.277Z,66.70
2023-02-11T00:05:24.294Z,66.98
2023-02-11T00:08:08.465Z,66.45
2023-02-11T00:10:55.185Z,65.80
2023-02-11T00:13:39.022Z,65.84
2023-02-11T00:16:23.035Z,66.68
2023-02-11T00:19:07.487Z,66.59
2023-02-11T00:21:51.241Z,66.76
2023-02-11T00:24:35.045Z,66.84
2023-02-11T00:27:20.564Z,67.58
2023-02-11T00:30:05.425Z,68.41
2023-02-11T00:32:49.295Z,68.25
2023-02-11T00:35:33.341Z,69.08
2023-02-11T00:38:17.369Z,68.13
2023-02-11T00:41:01.291Z,67.56
2023-02-11T00:43:47.111Z,67.56
2023-02-11T00:46:31.104Z,67.95
2023-02-11T00:49:15.425Z,68.10
2023-02-11T00:51:59.920Z,66.95
2023-02-11T00:54:44.002Z,68.18
2023-02-11T00:57:28.004Z,67.22
2023-02-11T01:00:15.698Z,67.73
2023-02-11T01:02:59.523Z,68.21
2023-02-11T01:05:43.240Z,67.23
2023-02-11T01:08:27.514Z,68.32
2023-02-11T01:11:15.610Z,68.33
2023-02-11T01:14:02.100Z,68.52
2023-02-11T01:16:47.248Z,68.37
2023-02-11T01:19:31.377Z,67.97
2023-02-11T01:22:15.245Z,68.88
2023-02-11T01:24:59.083Z,68.76
2023-02-11T01:27:42.960Z,68.83
2023-02-11T01:30:26.851Z,68.50
2023-02-11T01:33:12.209Z,68.16
2023-02-11T01:35:55.989Z,68.76
2023-02-11T01:38:41.320Z,68.67
2023-02-11T01:41:25.294Z,69.48
2023-02-11T01:44:27.330Z,69.56
2023-02-11T01:47:11.347Z,69.03
2023-02-11T01:50:00.495Z,69.47
2023-02-11T01:52:48.136Z,69.49
2023-02-11T01:55:50.628Z,69.70
2023-02-11T01:58:39.434Z,69.48
2023-02-11T02:01:26.905Z,69.41
2023-02-11T02:04:12.542Z,68.75
2023-02-11T02:07:03.774Z,68.96
2023-02-11T02:09:53.891Z,70.83
2023-02-11T02:12:37.669Z,70.54
2023-02-11T02:15:27.661Z,69.52
2023-02-11T02:18:31.843Z,69.63
2023-02-11T02:21:36.954Z,68.52
2023-02-11T02:24:39.878Z,69.74
2023-02-11T02:27:43.488Z,70.05
2023-02-11T02:30:58.052Z,70.60
2023-02-11T02:33:55.587Z,70.28
2023-02-11T02:36:49.406Z,70.36
2023-02-11T02:39:36.952Z,69.78
2023-02-11T02:42:22.600Z,69.47
2023-02-11T02:45:08.355Z,69.41
2023-02-11T02:47:53.849Z,69.53
2023-02-11T02:50:39.488Z,70.57
2023-02-11T02:53:33.335Z,71.05
2023-02-11T02:56:27.212Z,70.20
2023-02-11T02:59:36.381Z,70.44
2023-02-11T03:02:28.060Z,70.29
2023-02-11T03:05:18.999Z,70.20
2023-02-11T03:08:09.332Z,70.03
2023-02-11T03:10:55.674Z,69.66
2023-02-11T03:13:41.144Z,69.62
2023-02-11T03:16:29.436Z,70.26
2023-02-11T03:19:17.167Z,70.97
2023-02-11T03:22:03.843Z,70.29
2023-02-11T03:24:49.967Z,70.41
2023-02-11T03:27:40.827Z,69.91
2023-02-11T03:30:29.822Z,70.65
2023-02-11T03:33:19.031Z,70.09
2023-02-11T03:36:08.117Z,69.98
2023-02-11T03:38:57.541Z,70.10
2023-02-11T03:41:44.703Z,69.94
2023-02-11T03:44:32.753Z,69.26
2023-02-11T03:47:21.422Z,69.72
2023-02-11T03:50:07.609Z,69.40
2023-02-11T03:52:52.282Z,69.16
2023-02-11T03:55:41.093Z,69.03
2023-02-11T03:58:26.623Z,69.30
2023-02-11T04:01:10.967Z,70.29
2023-02-11T04:03:54.992Z,68.91
2023-02-11T04:06:39.000Z,69.15
2023-02-11T04:09:22.843Z,68.34
2023-02-11T04:12:06.911Z,69.10
2023-02-11T04:14:52.191Z,69.47
2023-02-11T04:17:36.074Z,70.02
2023-02-11T04:20:20.088Z,69.62
2023-02-11T04:23:04.030Z,69.58
2023-02-11T04:25:47.997Z,69.37
2023-02-11T04:28:32.245Z,69.72
2023-02-11T04:31:17.594Z,70.15
2023-02-11T04:34:01.585Z,69.14
2023-02-11T04:36:45.448Z,69.53
2023-02-11T04:39:29.270Z,69.07
2023-02-11T04:42:13.037Z,69.38
2023-02-11T04:44:56.927Z,69.83
2023-02-11T04:47:42.556Z,70.01
2023-02-11T04:50:26.560Z,69.99
2023-02-11T04:53:10.370Z,69.89
2023-02-11T04:55:54.183Z,69.98
2023-02-11T04:58:38.115Z,69.69
2023-02-11T05:01:21.907Z,70.31
2023-02-11T05:04:07.442Z,69.99
2023-02-11T05:06:51.508Z,70.36
2023-02-11T05:09:35.355Z,70.13
2023-02-11T05:12:19.175Z,69.68
2023-02-11T05:15:03.030Z,69.71
2023-02-11T05:17:48.388Z,69.69
2023-02-11T05:20:33.596Z,68.92
2023-02-11T05:23:17.374Z,69.44
2023-02-11T05:26:01.184Z,70.74
2023-02-11T05:28:46.249Z,70.67
2023-02-11T05:31:30.211Z,71.12
2023-02-11T05:34:14.081Z,71.53
2023-02-11T05:36:59.382Z,71.31
2023-02-11T05:39:43.263Z,70.84
2023-02-11T05:42:26.987Z,70.59
2023-02-11T05:45:11.214Z,70.71
2023-02-11T05:47:54.911Z,70.05
2023-02-11T05:50:38.897Z,70.28
2023-02-11T05:53:24.017Z,70.01
2023-02-11T05:56:08.390Z,69.70
2023-02-11T05:58:52.365Z,69.67
2023-02-11T06:01:36.259Z,70.08
2023-02-11T06:04:20.246Z,69.81
2023-02-11T06:07:04.710Z,69.27
2023-02-11T06:09:49.959Z,69.37
2023-02-11T06:12:33.863Z,70.25
2023-02-11T06:15:17.830Z,69.43
2023-02-11T06:18:01.724Z,68.56
2023-02-11T06:20:45.418Z,68.11
2023-02-11T06:23:30.550Z,67.37
2023-02-11T06:26:20.422Z,67.40
2023-02-11T06:29:04.339Z,67.15
2023-02-11T06:31:48.243Z,66.05
2023-02-11T06:34:32.160Z,65.95
2023-02-11T06:37:16.067Z,66.74
2023-02-11T06:39:59.793Z,66.89
2023-02-11T06:42:44.960Z,65.96
2023-02-11T06:45:28.695Z,66.09
2023-02-11T06:48:12.762Z,65.27
2023-02-11T06:50:56.571Z,64.57
2023-02-11T06:53:42.580Z,64.24
2023-02-11T06:56:27.542Z,64.99
2023-02-11T06:59:16.630Z,65.16
2023-02-11T07:02:00.563Z,65.62
2023-02-11T07:04:44.575Z,65.43
2023-02-11T07:07:30.050Z,65.16
2023-02-11T07:10:15.112Z,64.81
2023-02-11T07:12:58.974Z,64.61
2023-02-11T07:15:44.356Z,64.65
2023-02-11T07:18:28.305Z,64.50
2023-02-11T07:21:14.840Z,63.54
2023-02-11T07:23:59.001Z,64.04
2023-02-11T07:26:42.982Z,63.64
2023-02-11T07:29:26.980Z,63.27
2023-02-11T07:32:12.457Z,62.57
2023-02-11T07:34:56.705Z,62.77
2023-02-11T07:37:41.692Z,63.25
2023-02-11T07:40:25.746Z,62.90
2023-02-11T07:43:09.719Z,61.69
2023-02-11T07:45:53.774Z,62.23
2023-02-11T07:48:40.074Z,61.58
2023-02-11T07:51:26.777Z,61.51
2023-02-11T07:54:12.885Z,61.37
2023-02-11T07:56:56.939Z,62.06
2023-02-11T07:59:41.037Z,61.43
2023-02-11T08:02:25.076Z,61.87
2023-02-11T08:05:11.168Z,61.77
2023-02-11T08:07:56.121Z,61.68
2023-02-11T08:10:40.348Z,61.66
2023-02-11T08:13:24.543Z,60.52
2023-02-11T08:16:13.261Z,59.39
2023-02-11T08:18:59.253Z,56.36
2023-02-11T08:21:46.076Z,53.17
2023-02-11T08:24:30.062Z,53.05
2023-02-11T08:27:14.091Z,52.85
2023-02-11T08:30:00.085Z,52.04
2023-02-11T08:32:44.516Z,52.35
2023-02-11T08:35:28.977Z,51.68
2023-02-11T08:38:14.362Z,51.69
2023-02-11T08:41:01.062Z,51.77
2023-02-11T08:43:47.523Z,52.88
2023-02-11T08:46:32.031Z,51.79
2023-02-11T08:49:16.374Z,50.65
2023-02-11T08:52:04.030Z,50.62
2023-02-11T08:54:49.583Z,51.00
2023-02-11T08:57:33.584Z,51.02
2023-02-11T09:00:18.814Z,50.83
2023-02-11T09:03:02.718Z,50.37
2023-02-11T09:05:49.826Z,50.32
2023-02-11T09:08:36.341Z,49.81
2023-02-11T09:11:23.700Z,50.20
2023-02-11T09:14:07.786Z,51.48
2023-02-11T09:16:52.180Z,50.61
2023-02-11T09:19:36.032Z,49.29
2023-02-11T09:22:20.000Z,50.16
2023-02-11T09:25:03.935Z,49.72
2023-02-11T09:27:49.927Z,51.37
2023-02-11T09:30:33.935Z,49.96
2023-02-11T09:33:17.798Z,51.07
2023-02-11T09:36:02.493Z,51.43
2023-02-11T09:38:47.242Z,48.96
2023-02-11T09:42:18.568Z,50.01
2023-02-11T09:45:06.023Z,51.34
2023-02-11T09:47:55.370Z,50.41
2023-02-11T09:50:43.749Z,50.45
2023-02-11T09:53:29.623Z,49.22
2023-02-11T09:56:15.413Z,49.47
2023-02-11T09:58:59.476Z,49.36
2023-02-11T10:01:50.018Z,49.60
2023-02-11T10:04:49.247Z,49.91
2023-02-11T10:07:38.661Z,47.81
2023-02-11T10:10:40.292Z,48.81
2023-02-11T10:13:37.120Z,51.36
2023-02-11T10:16:32.509Z,51.93
2023-02-11T10:19:30.721Z,49.74
2023-02-11T10:22:21.217Z,51.09
2023-02-11T10:25:19.107Z,51.27
2023-02-11T10:28:11.934Z,51.06
2023-02-11T10:31:01.052Z,51.19
2023-02-11T10:33:48.854Z,51.19
2023-02-11T10:36:36.404Z,49.65
2023-02-11T10:39:21.877Z,51.59
2023-02-11T10:42:09.899Z,50.49
2023-02-11T10:45:00.580Z,50.89
2023-02-11T10:47:45.134Z,52.00
2023-02-11T10:50:30.709Z,51.50
2023-02-11T10:53:21.098Z,51.37
2023-02-11T10:56:07.502Z,51.49
2023-02-11T10:58:59.636Z,53.10
2023-02-11T11:01:46.784Z,52.25
2023-02-11T11:04:41.639Z,51.18
2023-02-11T11:07:28.402Z,51.44
2023-02-11T11:10:30.574Z,51.07
2023-02-11T11:13:30.389Z,50.64
2023-02-11T11:16:20.912Z,50.79
2023-02-11T11:19:23.474Z,49.73
2023-02-11T11:22:07.241Z,49.99
2023-02-11T11:24:54.490Z,50.11
2023-02-11T11:27:39.742Z,48.93
2023-02-11T11:30:26.989Z,49.12
2023-02-11T11:33:22.330Z,49.58
2023-02-11T11:36:08.971Z,49.06
2023-02-11T11:38:55.875Z,49.47
2023-02-11T11:41:51.245Z,49.04
2023-02-11T11:44:38.038Z,49.04
2023-02-11T11:47:28.209Z,49.17
2023-02-11T11:50:36.299Z,48.34
2023-02-11T11:53:24.709Z,47.63
2023-02-11T11:56:15.417Z,48.05
2023-02-11T11:59:03.745Z,48.02
2023-02-11T12:02:03.241Z,48.18
2023-02-11T12:05:02.626Z,47.67
2023-02-11T12:08:02.136Z,48.15
2023-02-11T12:10:58.839Z,47.50
2023-02-11T12:13:54.625Z,46.60
2023-02-11T12:16:52.093Z,47.31
2023-02-11T12:20:01.015Z,46.62
2023-02-11T12:22:54.733Z,45.69
2023-02-11T12:25:46.024Z,45.34
2023-02-11T12:28:41.510Z,43.24
2023-02-11T12:31:38.207Z,44.07
2023-02-11T12:34:47.049Z,45.44
2023-02-11T12:37:44.573Z,46.39
2023-02-11T12:40:35.172Z,46.03
2023-02-11T12:43:23.776Z,44.70
2023-02-11T12:46:36.200Z,43.31
2023-02-11T12:49:42.968Z,44.08
2023-02-11T12:52:51.657Z,42.82
2023-02-11T12:55:38.296Z,42.99
2023-02-11T12:58:35.536Z,42.11
2023-02-11T13:01:30.767Z,41.71
2023-02-11T13:04:22.300Z,42.68
2023-02-11T13:07:14.352Z,41.73
2023-02-11T13:10:07.707Z,41.55
2023-02-11T13:13:11.528Z,40.44
2023-02-11T13:16:02.366Z,40.18
2023-02-11T13:18:57.296Z,40.26
2023-02-11T13:22:10.744Z,39.76
2023-02-11T13:25:01.107Z,40.09
2023-02-11T13:27:58.411Z,40.57
2023-02-11T13:30:47.526Z,41.62
2023-02-11T13:33:39.651Z,42.88
2023-02-11T13:36:25.734Z,42.47
2023-02-11T13:39:21.910Z,42.30
2023-02-11T13:42:07.381Z,42.85
2023-02-11T13:44:51.675Z,42.79
2023-02-11T13:47:38.045Z,42.32
2023-02-11T13:50:25.258Z,41.91
2023-02-11T13:53:09.918Z,40.94
2023-02-11T13:56:06.244Z,42.13
2023-02-11T13:58:52.726Z,41.84
2023-02-11T14:02:20.693Z,41.80
2023-02-11T14:05:38.433Z,42.41
2023-02-11T14:08:42.043Z,42.46
2023-02-11T14:11:50.352Z,41.68
2023-02-11T14:14:36.187Z,43.48
2023-02-11T14:17:21.370Z,42.66
2023-02-11T14:20:26.449Z,41.55
2023-02-11T14:23:24.144Z,41.74
2023-02-11T14:26:31.176Z,42.21
2023-02-11T14:29:21.073Z,42.50
2023-02-11T14:32:14.358Z,42.41
2023-02-11T14:35:09.267Z,42.93
2023-02-11T14:38:03.118Z,42.75
2023-02-11T14:40:55.194Z,42.58
2023-02-11T14:43:42.493Z,42.79
2023-02-11T14:46:30.024Z,43.58
2023-02-11T14:49:25.447Z,43.29
2023-02-11T14:52:28.886Z,42.93
2023-02-11T14:55:25.382Z,43.17
2023-02-11T14:58:15.679Z,42.82
2023-02-11T15:01:01.483Z,43.00
2023-02-11T15:03:50.629Z,43.59
2023-02-11T15:06:39.285Z,44.11
2023-02-11T15:09:28.211Z,43.83
2023-02-11T15:12:20.403Z,45.37
2023-02-11T15:15:04.865Z,45.30
2023-02-11T15:17:49.619Z,45.29
2023-02-11T15:20:36.103Z,45.69
2023-02-11T15:23:25.696Z,46.66
2023-02-11T15:26:15.474Z,47.60
2023-02-11T15:28:59.870Z,47.24
2023-02-11T15:31:44.008Z,48.46
2023-02-11T15:34:28.408Z,48.63
2023-02-11T15:37:16.310Z,48.74
2023-02-11T15:40:12.396Z,49.47
2023-02-11T15:42:58.989Z,49.50
2023-02-11T15:45:45.408Z,51.26
2023-02-11T15:48:36.702Z,54.12
2023-02-11T15:51:23.239Z,54.89
2023-02-11T15:54:16.569Z,55.15
2023-02-11T15:57:08.686Z,54.32
2023-02-11T15:59:55.444Z,54.13
2023-02-11T16:02:45.275Z,56.26
2023-02-11T16:05:32.840Z,56.41
2023-02-11T16:08:24.573Z,56.53
2023-02-11T16:11:09.721Z,56.35
2023-02-11T16:13:55.118Z,56.79
2023-02-11T16:16:39.166Z,57.06
2023-02-11T16:19:25.718Z,56.73
2023-02-11T16:22:12.157Z,57.42
2023-02-11T16:24:59.606Z,56.88
2023-02-11T16:27:44.332Z,56.08
2023-02-11T16:30:37.629Z,56.10
2023-02-11T16:33:21.859Z,55.45
2023-02-11T16:36:13.620Z,55.55
2023-02-11T16:38:57.499Z,55.90
2023-02-11T16:41:41.842Z,55.89
2023-02-11T16:44:25.935Z,55.95
2023-02-11T16:47:20.679Z,55.80
2023-02-11T16:50:04.592Z,55.84
2023-02-11T16:52:48.457Z,55.06
2023-02-11T16:55:32.590Z,54.82
2023-02-11T16:58:16.988Z,54.64
2023-02-11T17:01:01.057Z,54.22
2023-02-11T17:03:46.494Z,55.57
2023-02-11T17:06:30.488Z,56.66
2023-02-11T17:09:19.142Z,57.36
2023-02-11T17:12:03.182Z,56.26
2023-02-11T17:14:47.163Z,55.60
2023-02-11T17:17:30.998Z,54.97
2023-02-11T17:20:17.463Z,54.75
2023-02-11T17:23:01.267Z,54.27
2023-02-11T17:25:45.225Z,53.99
2023-02-11T17:28:29.112Z,54.03
2023-02-11T17:31:13.097Z,54.65
2023-02-11T17:33:57.390Z,55.15
2023-02-11T17:36:42.595Z,55.38
2023-02-11T17:39:26.493Z,55.96
2023-02-11T17:42:11.742Z,55.61
2023-02-11T17:44:55.688Z,55.80
2023-02-11T17:47:39.730Z,55.53
2023-02-11T17:50:23.801Z,55.95
2023-02-11T17:53:09.230Z,55.18
2023-02-11T17:55:53.363Z,54.94
2023-02-11T17:58:37.420Z,54.42
2023-02-11T18:01:21.629Z,54.92
2023-02-11T18:04:06.606Z,55.16
2023-02-11T18:06:53.630Z,55.09
2023-02-11T18:09:42.846Z,55.52
2023-02-11T18:12:26.847Z,55.62
2023-02-11T18:15:11.450Z,55.73
2023-02-11T18:17:56.284Z,55.21
2023-02-11T18:20:42.893Z,56.01
2023-02-11T18:23:27.105Z,56.47
2023-02-11T18:26:14.630Z,56.97
2023-02-11T18:29:00.717Z,57.63
2023-02-11T18:31:44.776Z,58.44
2023-02-11T18:34:28.879Z,59.01
2023-02-11T18:37:14.154Z,59.34
2023-02-11T18:39:58.196Z,59.28
2023-02-11T18:42:44.126Z,58.62
2023-02-11T18:45:29.274Z,58.72
2023-02-11T18:48:13.859Z,57.88
2023-02-11T18:50:57.923Z,58.12
2023-02-11T18:53:42.314Z,57.01
2023-02-11T18:56:27.908Z,56.34
2023-02-11T18:59:13.810Z,56.89
2023-02-11T19:01:58.142Z,57.75
2023-02-11T19:04:42.185Z,58.73
2023-02-11T19:07:26.399Z,58.23
2023-02-11T19:10:10.652Z,58.53
2023-02-11T19:12:56.411Z,59.22
2023-02-11T19:15:44.585Z,60.02
2023-02-11T19:18:28.608Z,60.37
2023-02-11T19:21:14.110Z,60.47
2023-02-11T19:23:58.512Z,60.29
2023-02-11T19:26:43.526Z,60.20
2023-02-11T19:29:28.234Z,60.09
2023-02-11T19:32:13.573Z,60.20
2023-02-11T19:34:57.638Z,59.61
2023-02-11T19:37:41.646Z,58.83
2023-02-11T19:40:25.707Z,58.61
2023-02-11T19:43:09.742Z,57.69
2023-02-11T19:45:56.402Z,56.97
2023-02-11T19:48:42.028Z,57.46
2023-02-11T19:51:26.193Z,57.54
2023-02-11T19:54:10.227Z,59.27
2023-02-11T19:56:54.440Z,58.02
2023-02-11T19:59:38.394Z,58.82
2023-02-11T20:02:22.643Z,58.54
2023-02-11T20:05:08.670Z,58.60
2023-02-11T20:07:52.811Z,59.45
2023-02-11T20:10:36.810Z,58.08
2023-02-11T20:13:20.857Z,57.76
2023-02-11T20:16:09.023Z,58.33
2023-02-11T20:18:53.716Z,58.97
2023-02-11T20:21:39.698Z,58.48
2023-02-11T20:24:24.520Z,58.73
2023-02-11T20:27:10.563Z,59.62
2023-02-11T20:29:54.617Z,59.25
2023-02-11T20:32:39.119Z,59.51
2023-02-11T20:35:23.098Z,60.05
2023-02-11T20:38:08.688Z,59.43
2023-02-11T20:40:53.140Z,60.54
2023-02-11T20:43:38.027Z,60.26
2023-02-11T20:46:24.341Z,60.72
2023-02-11T20:49:08.874Z,60.64
2023-02-11T20:51:54.084Z,60.47
2023-02-11T20:54:39.874Z,61.31
2023-02-11T20:57:23.912Z,62.27
2023-02-11T21:00:09.822Z,61.87
2023-02-11T21:02:54.121Z,60.80
2023-02-11T21:05:38.122Z,59.81
2023-02-11T21:08:22.234Z,60.43
2023-02-11T21:11:09.011Z,60.03
2023-02-11T21:13:53.293Z,59.95
2023-02-11T21:16:37.423Z,60.34
2023-02-11T21:19:22.012Z,61.15
2023-02-11T21:22:06.087Z,60.90
2023-02-11T21:24:50.335Z,60.76
2023-02-11T21:27:35.812Z,61.14
2023-02-11T21:30:19.958Z,61.76
2023-02-11T21:33:03.882Z,60.97
2023-02-11T21:35:47.959Z,61.10
2023-02-11T21:38:32.915Z,60.86
2023-02-11T21:41:17.075Z,61.25
2023-02-11T21:44:02.509Z,60.88
2023-02-11T21:46:47.114Z,61.21
2023-02-11T21:49:31.034Z,61.11
2023-02-11T21:52:14.969Z,61.86
2023-02-11T21:54:59.081Z,61.87
2023-02-11T21:57:43.089Z,61.91
2023-02-11T22:00:29.105Z,61.59
2023-02-11T22:03:14.116Z,61.63
2023-02-11T22:05:58.060Z,61.09
2023-02-11T22:08:42.751Z,61.23
2023-02-11T22:11:26.582Z,61.26
2023-02-11T22:14:10.407Z,60.96
2023-02-11T22:16:55.623Z,60.68
2023-02-11T22:19:39.518Z,60.19
2023-02-11T22:22:23.281Z,60.59
2023-02-11T22:25:07.794Z,61.10
2023-02-11T22:27:51.491Z,60.81
2023-02-11T22:30:35.340Z,59.71
2023-02-11T22:33:20.583Z,58.72
2023-02-11T22:36:07.638Z,59.23
2023-02-11T22:38:52.092Z,59.53
2023-02-11T22:41:38.288Z,58.89
2023-02-11T22:44:22.085Z,58.54
2023-02-11T22:47:06.003Z,58.39
2023-02-11T22:49:51.154Z,57.28
2023-02-11T22:52:36.531Z,57.20
2023-02-11T22:55:20.375Z,58.79
2023-02-11T22:58:04.333Z,58.31
2023-02-11T23:00:48.038Z,58.75
2023-02-11T23:03:32.639Z,58.66
2023-02-11T23:06:18.597Z,58.02
2023-02-11T23:09:04.191Z,58.61
2023-02-11T23:11:49.443Z,58.28
2023-02-11T23:14:33.208Z,57.24
2023-02-11T23:17:16.932Z,56.67
2023-02-11T23:20:00.686Z,56.47
2023-02-11T23:22:45.830Z,57.27
2023-02-11T23:25:29.802Z,56.81
2023-02-11T23:28:13.976Z,55.65
2023-02-11T23:30:57.906Z,55.81
2023-02-11T23:33:41.753Z,55.21
2023-02-11T23:36:25.688Z,55.40
2023-02-11T23:39:14.508Z,55.33
2023-02-11T23:41:59.627Z,55.38
2023-02-11T23:44:43.622Z,55.90
2023-02-11T23:47:27.408Z,55.19
2023-02-11T23:50:12.582Z,55.21
2023-02-11T23:52:56.416Z,54.22
2023-02-11T23:55:42.859Z,56.07
2023-02-11T23:58:26.695Z,55.70
